Akurnes, Iceland
Current Conditions -  °F | °C
As of 3:00 PM on Thursday 30 Oct 2014 (Local Time) from BIEG Reporting Station
Broken Clouds Broken Clouds  
Wind Chill: 30°   Ceiling: 3500
Heat Index: 30°   Visibility: 6mi
Dew Point: 25°   Wind: 3mph
Humidity: 80%   Direction: NA
Pressure: 30.09"   Gusts: NA
Location:  64.3°N, 15.22°W
Report Text: BIEG 301500Z VRB03KT 9999 BKN035 BKN060 M01/M04 Q1019
Loading
Personal Weather Stations






























Interactive Weather Map
Tropical Storm Tracking
New forecast layout! Learn more

10-Day Weather Forecast

Advertisements
Track Severe Weather on mobile